Time;durP1;ratioP1;P1;durP2;ratioP2;P2;SDS_P1;SDS_P2;PMS_P1;PMS_P2;Temp;Humidity;BMP_temperature;BMP_pressure;BME280_temperature;BME280_humidity;BME280_pressure;Samples;Min_cycle;Max_cycle;Signal;HPM_P1;HPM_P2
2022/08/08 00:00:03;;;;;;;0.10;0.10;;;13.00;99.90;;;;;;5068375;28;20455;-86
2022/08/08 00:02:57;;;;;;;0.10;0.10;;;13.00;99.90;;;;;;5051624;28;20448;-86
2022/08/08 00:05:52;;;;;;;0.10;0.10;;;13.00;99.90;;;;;;5063586;28;20445;-86
2022/08/08 00:08:45;;;;;;;0.10;0.10;;;12.90;99.90;;;;;;5050411;28;20422;-86
2022/08/08 00:11:27;;;;;;;0.10;0.10;;;12.70;99.90;;;;;;5066751;28;20487;-85
2022/08/08 00:14:10;;;;;;;0.10;0.10;;;12.90;99.90;;;;;;5069068;28;20436;-86
2022/08/08 00:16:38;;;;;;;0.10;0.10;;;12.80;99.90;;;;;;5068978;28;20455;-86
2022/08/08 00:19:17;;;;;;;0.20;0.20;;;12.70;99.90;;;;;;5050165;28;20456;-86
2022/08/08 00:21:56;;;;;;;0.10;0.10;;;12.60;99.90;;;;;;5068514;28;20634;-86
2022/08/08 00:24:35;;;;;;;0.20;0.20;;;12.60;99.90;;;;;;5050350;28;20783;-86
2022/08/08 00:27:06;;;;;;;0.10;0.10;;;12.70;99.90;;;;;;5070092;28;21064;-87
2022/08/08 00:29:38;;;;;;;0.10;0.10;;;12.60;99.90;;;;;;5051829;28;20947;-85
2022/08/08 00:32:10;;;;;;;0.10;0.10;;;12.50;99.90;;;;;;5050576;28;20491;-86
2022/08/08 00:35:19;;;;;;;0.10;0.10;;;12.30;99.90;;;;;;5066951;28;20436;-85
2022/08/08 00:38:06;;;;;;;0.10;0.10;;;12.40;99.90;;;;;;5066777;28;20428;-86
2022/08/08 00:40:37;;;;;;;0.10;0.10;;;12.40;99.90;;;;;;5065733;28;20439;-86
2022/08/08 00:43:32;;;;;;;0.10;0.10;;;12.40;99.90;;;;;;5070001;28;20446;-86
2022/08/08 00:46:03;;;;;;;0.10;0.10;;;12.40;99.90;;;;;;5070034;28;20427;-86
2022/08/08 00:48:43;;;;;;;0.10;0.10;;;12.40;99.90;;;;;;5068319;28;20436;-86
2022/08/08 00:51:46;;;;;;;0.20;0.20;;;12.40;99.90;;;;;;5071658;28;20487;-86
2022/08/08 00:54:46;;;;;;;0.10;0.10;;;12.40;99.90;;;;;;5064713;28;20436;-86
2022/08/08 00:57:45;;;;;;;0.10;0.10;;;12.40;99.90;;;;;;5056561;28;20445;-85
2022/08/08 01:00:11;;;;;;;0.10;0.10;;;12.30;99.90;;;;;;5068234;28;20450;-85
2022/08/08 01:03:08;;;;;;;0.10;0.10;;;12.30;99.90;;;;;;5070894;28;20443;-86
2022/08/08 01:05:43;;;;;;;0.10;0.10;;;12.30;99.90;;;;;;5066523;28;20440;-86
2022/08/08 01:08:52;;;;;;;0.10;0.10;;;12.30;99.90;;;;;;5055172;28;20430;-86
2022/08/08 01:11:51;;;;;;;0.10;0.10;;;12.20;99.90;;;;;;5061518;28;20483;-86
2022/08/08 01:14:52;;;;;;;0.10;0.10;;;12.10;99.90;;;;;;5061361;28;20439;-86
2022/08/08 01:17:59;;;;;;;0.10;0.10;;;12.10;99.90;;;;;;5071931;28;20452;-86
2022/08/08 01:21:13;;;;;;;0.10;0.10;;;12.10;99.90;;;;;;5066054;28;20452;-87
2022/08/08 01:23:58;;;;;;;0.20;0.20;;;12.10;99.90;;;;;;4991601;28;20959;-85
2022/08/08 01:26:48;;;;;;;0.10;0.10;;;12.10;99.90;;;;;;5072007;28;20502;-85
2022/08/08 01:29:32;;;;;;;0.10;0.10;;;12.10;99.90;;;;;;5070444;28;20487;-85
2022/08/08 01:32:34;;;;;;;0.17;0.17;;;12.10;99.90;;;;;;5068553;28;20983;-85
2022/08/08 01:35:20;;;;;;;0.13;0.13;;;12.20;99.90;;;;;;5060447;28;20445;-85
2022/08/08 01:38:09;;;;;;;0.10;0.10;;;12.20;99.90;;;;;;5071702;28;20435;-86
2022/08/08 01:40:57;;;;;;;0.10;0.10;;;12.30;99.90;;;;;;5071734;28;20791;-85
2022/08/08 01:43:37;;;;;;;0.10;0.10;;;12.40;99.90;;;;;;5071802;28;20452;-85
2022/08/08 01:46:27;;;;;;;0.20;0.20;;;12.30;99.90;;;;;;5053684;28;20487;-85
2022/08/08 01:49:17;;;;;;;0.10;0.10;;;12.40;99.90;;;;;;5071902;28;20427;-85
2022/08/08 01:52:03;;;;;;;0.20;0.20;;;12.50;99.90;;;;;;5069938;28;20516;-86
2022/08/08 01:54:56;;;;;;;0.17;0.17;;;12.50;99.90;;;;;;5053756;28;20828;-87
2022/08/08 01:57:59;;;;;;;0.10;0.10;;;12.60;99.90;;;;;;5070907;28;20868;-86
2022/08/08 02:00:32;;;;;;;0.10;0.10;;;12.50;99.90;;;;;;5058729;28;20453;-86
2022/08/08 02:03:35;;;;;;;0.10;0.10;;;12.50;99.90;;;;;;5067202;28;20580;-86
2022/08/08 02:06:23;;;;;;;0.10;0.10;;;12.50;99.90;;;;;;5070994;28;20444;-86
2022/08/08 02:09:09;;;;;;;0.10;0.10;;;12.70;99.90;;;;;;5071796;28;20452;-86
2022/08/08 02:11:40;;;;;;;0.10;0.10;;;12.70;99.90;;;;;;5072055;28;20967;-86
2022/08/08 02:14:25;;;;;;;0.20;0.20;;;12.70;99.90;;;;;;5053944;28;20442;-86
2022/08/08 02:17:25;;;;;;;0.10;0.10;;;12.70;99.90;;;;;;5070243;28;20511;-86
2022/08/08 02:20:20;;;;;;;0.20;0.20;;;12.80;99.90;;;;;;5053397;28;20444;-86
2022/08/08 02:22:57;;;;;;;0.10;0.10;;;12.80;99.90;;;;;;5053035;28;20982;-86
2022/08/08 02:25:41;;;;;;;0.20;0.20;;;12.60;99.90;;;;;;5055772;28;20451;-87
2022/08/08 02:28:18;;;;;;;0.10;0.10;;;12.60;99.90;;;;;;5070365;28;20487;-86
2022/08/08 02:30:56;;;;;;;0.10;0.10;;;12.50;99.90;;;;;;5070991;28;20485;-86
2022/08/08 02:33:40;;;;;;;0.20;0.20;;;12.30;99.90;;;;;;5071293;28;21006;-86
2022/08/08 02:36:15;;;;;;;0.20;0.20;;;12.30;99.90;;;;;;5066281;28;20509;-85
2022/08/08 02:39:25;;;;;;;0.10;0.10;;;12.20;99.90;;;;;;5063228;28;20453;-85
2022/08/08 02:42:44;;;;;;;0.10;0.10;;;12.20;99.90;;;;;;5048527;28;20413;-85
2022/08/08 02:45:43;;;;;;;0.10;0.10;;;12.10;99.90;;;;;;5057469;28;20440;-86
2022/08/08 02:48:46;;;;;;;0.10;0.10;;;12.00;99.90;;;;;;5051548;28;20444;-85
2022/08/08 02:51:39;;;;;;;0.10;0.10;;;12.00;99.90;;;;;;5049291;28;20562;-86
2022/08/08 02:54:55;;;;;;;0.10;0.10;;;12.00;99.90;;;;;;5065586;28;20433;-85
2022/08/08 02:57:36;;;;;;;0.20;0.20;;;11.90;99.90;;;;;;5025132;28;20530;-86
2022/08/08 03:00:38;;;;;;;0.20;0.20;;;11.90;99.90;;;;;;5060843;28;20429;-85
2022/08/08 03:03:40;;;;;;;0.10;0.10;;;12.00;99.90;;;;;;5049095;28;20611;-85
2022/08/08 03:06:15;;;;;;;0.10;0.10;;;11.90;99.90;;;;;;5058415;28;21090;-85
2022/08/08 03:08:40;;;;;;;0.20;0.20;;;12.00;99.90;;;;;;5052110;28;20789;-86
2022/08/08 03:11:40;;;;;;;0.10;0.10;;;11.90;99.90;;;;;;5074923;28;20530;-86
2022/08/08 03:14:27;;;;;;;0.10;0.10;;;11.80;99.90;;;;;;5052037;28;20186;-85
2022/08/08 03:17:11;;;;;;;0.13;0.13;;;11.90;99.90;;;;;;5070057;28;20448;-86
2022/08/08 03:19:55;;;;;;;0.10;0.10;;;12.00;99.90;;;;;;5034994;28;20474;-85
2022/08/08 03:22:21;;;;;;;0.10;0.10;;;12.00;99.90;;;;;;5051882;28;20469;-85
2022/08/08 03:24:46;;;;;;;0.20;0.20;;;12.00;99.90;;;;;;5066003;28;21011;-85
2022/08/08 03:27:52;;;;;;;0.20;0.20;;;12.00;99.90;;;;;;5065590;28;20190;-85
2022/08/08 03:30:19;;;;;;;0.17;0.17;;;11.90;99.90;;;;;;5025210;28;20612;-84
2022/08/08 03:35:30;;;;;;;0.10;0.10;;;11.60;99.90;;;;;;5060993;28;20536;-85
2022/08/08 03:37:59;;;;;;;0.20;0.20;;;11.60;99.90;;;;;;5068815;28;20546;-86
2022/08/08 03:40:24;;;;;;;0.10;0.10;;;11.60;99.90;;;;;;5058508;28;20189;-84
2022/08/08 03:42:50;;;;;;;0.20;0.20;;;11.60;99.90;;;;;;5044265;28;20436;-84
2022/08/08 03:45:24;;;;;;;0.13;0.13;;;11.70;99.90;;;;;;5058613;28;20187;-86
2022/08/08 03:48:02;;;;;;;0.20;0.20;;;11.60;99.90;;;;;;5059867;28;20181;-85
2022/08/08 03:50:30;;;;;;;0.20;0.20;;;11.70;99.90;;;;;;5064062;28;20537;-85
2022/08/08 03:53:01;;;;;;;0.20;0.20;;;11.70;99.90;;;;;;5052457;28;20566;-86
2022/08/08 03:55:27;;;;;;;0.20;0.20;;;11.70;99.90;;;;;;5069681;28;20428;-85
2022/08/08 03:57:55;;;;;;;0.20;0.20;;;11.60;99.90;;;;;;5065466;28;20586;-85
2022/08/08 04:00:25;;;;;;;0.20;0.20;;;11.60;99.90;;;;;;5068614;28;20262;-85
2022/08/08 04:02:59;;;;;;;0.20;0.20;;;11.50;99.90;;;;;;5067628;28;20526;-85
2022/08/08 04:05:30;;;;;;;0.10;0.10;;;11.50;99.90;;;;;;5050147;28;20448;-84
2022/08/08 04:07:57;;;;;;;0.10;0.10;;;11.40;99.90;;;;;;5050473;28;21095;-85
2022/08/08 04:10:23;;;;;;;0.20;0.20;;;11.50;99.90;;;;;;5060843;28;20553;-85
2022/08/08 04:12:49;;;;;;;0.10;0.10;;;11.60;99.90;;;;;;5062204;28;21050;-85
2022/08/08 04:15:14;;;;;;;0.10;0.10;;;11.70;99.90;;;;;;5050672;28;20191;-85
2022/08/08 04:17:40;;;;;;;0.20;0.20;;;11.70;99.90;;;;;;5042349;28;20193;-84
2022/08/08 04:20:06;;;;;;;0.20;0.20;;;11.70;99.90;;;;;;5067337;28;20190;-85
2022/08/08 04:22:31;;;;;;;0.20;0.20;;;11.90;99.90;;;;;;5068179;28;20189;-85
2022/08/08 04:24:57;;;;;;;0.10;0.10;;;11.80;99.90;;;;;;5068762;28;20440;-85
2022/08/08 04:27:25;;;;;;;0.20;0.20;;;11.70;99.90;;;;;;5062699;28;20194;-85
2022/08/08 04:29:50;;;;;;;0.20;0.20;;;11.80;99.90;;;;;;5035274;28;20434;-84
2022/08/08 04:32:17;;;;;;;0.20;0.20;;;11.80;99.90;;;;;;5062946;28;20547;-84
2022/08/08 04:34:42;;;;;;;0.20;0.20;;;11.90;99.90;;;;;;5063105;28;20189;-85
2022/08/08 04:37:09;;;;;;;0.10;0.10;;;11.90;99.90;;;;;;5069841;28;20424;-84
2022/08/08 04:39:34;;;;;;;0.20;0.20;;;11.90;99.90;;;;;;5068767;28;20214;-87
2022/08/08 04:42:00;;;;;;;0.10;0.10;;;11.90;99.90;;;;;;5068701;28;20455;-85
2022/08/08 04:44:25;;;;;;;0.20;0.20;;;11.80;99.90;;;;;;5066653;28;20251;-85
2022/08/08 04:46:51;;;;;;;0.10;0.10;;;11.80;99.90;;;;;;5064654;28;20698;-85
2022/08/08 04:49:17;;;;;;;0.20;0.20;;;11.70;99.90;;;;;;5066327;28;20190;-84
2022/08/08 04:51:42;;;;;;;0.20;0.20;;;11.80;99.90;;;;;;5059841;28;20574;-84
2022/08/08 04:54:08;;;;;;;0.20;0.20;;;11.70;99.90;;;;;;5062938;28;20220;-85
2022/08/08 04:56:33;;;;;;;0.20;0.20;;;11.80;99.90;;;;;;5065213;28;20269;-85
2022/08/08 04:58:59;;;;;;;0.17;0.17;;;11.90;99.90;;;;;;5066394;28;20228;-85
2022/08/08 05:01:25;;;;;;;0.20;0.20;;;12.00;99.90;;;;;;5042384;28;20763;-85
2022/08/08 05:03:50;;;;;;;0.10;0.10;;;11.90;99.90;;;;;;5054515;28;20233;-84
2022/08/08 05:06:16;;;;;;;0.10;0.10;;;11.90;99.90;;;;;;5062787;28;20647;-85
2022/08/08 05:08:41;;;;;;;0.10;0.10;;;12.00;99.90;;;;;;5063980;28;20235;-84
2022/08/08 05:11:08;;;;;;;0.10;0.10;;;12.00;99.90;;;;;;5056425;28;20246;-84
2022/08/08 05:13:33;;;;;;;0.10;0.10;;;12.10;99.90;;;;;;5061533;28;20659;-84
2022/08/08 05:15:59;;;;;;;0.10;0.10;;;12.20;99.90;;;;;;5063727;28;20466;-84
2022/08/08 05:18:24;;;;;;;0.20;0.20;;;12.20;99.90;;;;;;5067277;28;20201;-86
2022/08/08 05:20:50;;;;;;;0.10;0.10;;;12.30;99.90;;;;;;5069139;28;20186;-86
2022/08/08 05:23:16;;;;;;;0.10;0.10;;;12.40;99.90;;;;;;5068146;28;20661;-85
2022/08/08 05:25:41;;;;;;;0.20;0.20;;;12.40;99.90;;;;;;5068832;28;20700;-85
2022/08/08 05:28:07;;;;;;;0.20;0.20;;;12.60;99.90;;;;;;5067719;28;20954;-84
2022/08/08 05:30:32;;;;;;;0.10;0.10;;;12.70;99.90;;;;;;5070009;28;20603;-85
2022/08/08 05:32:58;;;;;;;0.20;0.20;;;12.80;99.90;;;;;;5049385;28;20670;-86
2022/08/08 05:35:25;;;;;;;0.20;0.20;;;12.90;99.90;;;;;;5071342;28;20197;-85
2022/08/08 05:37:59;;;;;;;0.10;0.10;;;13.00;99.90;;;;;;5070826;28;20186;-86
2022/08/08 05:40:27;;;;;;;0.10;0.10;;;13.10;99.90;;;;;;5071020;28;20926;-85
2022/08/08 05:42:58;;;;;;;0.10;0.10;;;13.30;99.90;;;;;;5071053;28;20428;-86
2022/08/08 05:45:23;;;;;;;0.10;0.10;;;13.60;99.90;;;;;;5071965;28;20438;-87
2022/08/08 05:47:49;;;;;;;0.10;0.10;;;13.80;99.90;;;;;;5071153;28;20888;-87
2022/08/08 05:50:17;;;;;;;0.10;0.10;;;14.10;99.90;;;;;;5047976;28;20560;-87
2022/08/08 05:52:43;;;;;;;0.10;0.10;;;14.30;99.90;;;;;;5053938;28;20508;-85
2022/08/08 05:55:09;;;;;;;0.10;0.10;;;14.40;99.90;;;;;;5072920;28;20456;-85
2022/08/08 05:57:36;;;;;;;0.10;0.10;;;14.50;99.90;;;;;;5053988;28;20190;-86
2022/08/08 06:00:10;;;;;;;0.10;0.10;;;14.60;99.90;;;;;;5053086;28;20432;-88
2022/08/08 06:05:21;;;;;;;0.10;0.10;;;14.90;99.90;;;;;;5070855;28;21202;-87
2022/08/08 06:07:49;;;;;;;0.10;0.10;;;15.00;99.90;;;;;;5053432;28;20440;-87
2022/08/08 06:10:15;;;;;;;0.10;0.10;;;15.10;99.90;;;;;;5071790;28;20472;-88
2022/08/08 06:12:42;;;;;;;0.10;0.10;;;15.20;99.90;;;;;;5067055;28;20495;-87
2022/08/08 06:15:09;;;;;;;0.10;0.10;;;15.30;99.90;;;;;;5069601;28;20506;-87
2022/08/08 06:17:38;;;;;;;0.10;0.10;;;15.40;99.90;;;;;;5066470;28;20452;-87
2022/08/08 06:20:08;;;;;;;0.10;0.10;;;15.60;99.90;;;;;;5082291;28;20448;-86
2022/08/08 06:22:34;;;;;;;0.10;0.10;;;15.60;99.90;;;;;;5053581;28;20851;-86
2022/08/08 06:25:00;;;;;;;0.10;0.10;;;15.70;99.90;;;;;;5066401;28;20437;-86
2022/08/08 06:27:38;;;;;;;0.10;0.10;;;15.90;99.90;;;;;;5061009;28;20194;-86
2022/08/08 06:30:09;;;;;;;0.10;0.10;;;16.00;99.90;;;;;;5062667;28;20494;-88
2022/08/08 06:32:44;;;;;;;0.10;0.10;;;16.20;99.90;;;;;;5060706;28;20538;-88
2022/08/08 06:35:14;;;;;;;0.10;0.10;;;16.30;99.90;;;;;;5066017;28;20453;-87
2022/08/08 06:37:56;;;;;;;0.10;0.10;;;16.60;99.90;;;;;;5069321;28;21001;-88
2022/08/08 06:40:24;;;;;;;0.10;0.10;;;16.80;99.90;;;;;;5071964;28;20475;-88
2022/08/08 06:42:55;;;;;;;0.10;0.10;;;16.90;99.90;;;;;;5055466;28;20448;-88
2022/08/08 06:45:24;;;;;;;0.10;0.10;;;17.10;99.90;;;;;;5070435;28;20444;-88
2022/08/08 06:47:51;;;;;;;0.10;0.10;;;17.30;99.90;;;;;;5051739;28;21000;-88
2022/08/08 06:50:17;;;;;;;0.10;0.10;;;17.30;99.90;;;;;;5045139;28;20449;-87
2022/08/08 06:52:43;;;;;;;0.10;0.10;;;17.20;99.90;;;;;;5067879;28;20518;-88
2022/08/08 06:55:09;;;;;;;0.10;0.10;;;17.30;99.90;;;;;;5056660;28;20515;-87
2022/08/08 06:57:35;;;;;;;0.10;0.10;;;17.50;99.90;;;;;;5060870;28;20443;-87
2022/08/08 07:00:04;;;;;;;0.10;0.10;;;17.40;99.90;;;;;;5047773;28;20509;-88
2022/08/08 07:02:32;;;;;;;0.10;0.10;;;17.60;99.90;;;;;;5066812;28;20964;-89
2022/08/08 07:04:57;;;;;;;0.10;0.10;;;17.80;99.90;;;;;;5063148;28;20866;-88
2022/08/08 07:07:41;;;;;;;0.10;0.10;;;18.10;99.90;;;;;;5052247;28;20569;-88
2022/08/08 07:10:09;;;;;;;0.10;0.10;;;18.20;99.90;;;;;;5045854;28;20223;-89
2022/08/08 07:12:41;;;;;;;0.10;0.10;;;18.30;99.90;;;;;;5065071;28;20575;-88
2022/08/08 07:15:09;;;;;;;0.10;0.10;;;18.50;99.90;;;;;;5041033;28;20443;-86
2022/08/08 07:17:48;;;;;;;0.10;0.10;;;18.90;99.90;;;;;;5068973;28;20452;-86
2022/08/08 07:20:29;;;;;;;0.10;0.10;;;19.00;99.90;;;;;;5049799;28;20502;-85
2022/08/08 07:23:21;;;;;;;0.10;0.10;;;18.90;99.90;;;;;;5069625;28;20455;-85
2022/08/08 07:25:50;;;;;;;0.10;0.10;;;18.80;99.90;;;;;;5070274;28;20456;-87
2022/08/08 07:28:18;;;;;;;0.10;0.10;;;18.50;99.90;;;;;;5065826;28;20479;-86
2022/08/08 07:30:45;;;;;;;0.20;0.10;;;18.10;99.90;;;;;;5069399;28;20515;-85
2022/08/08 07:33:11;;;;;;;0.10;0.10;;;17.90;99.90;;;;;;5070135;28;20470;-84
2022/08/08 07:35:38;;;;;;;0.10;0.10;;;17.90;99.90;;;;;;5069426;28;20428;-84
2022/08/08 07:38:05;;;;;;;0.10;0.10;;;17.90;99.90;;;;;;5067728;28;20448;-83
2022/08/08 07:40:31;;;;;;;0.10;0.10;;;18.10;99.90;;;;;;5068202;28;20428;-84
2022/08/08 07:42:58;;;;;;;0.10;0.10;;;18.30;99.90;;;;;;5068450;28;20435;-85
2022/08/08 07:45:23;;;;;;;0.10;0.10;;;18.80;99.90;;;;;;5069541;28;20496;-83
2022/08/08 07:47:51;;;;;;;0.10;0.10;;;19.20;99.90;;;;;;5051834;28;20937;-85
2022/08/08 07:50:16;;;;;;;0.10;0.10;;;19.30;99.90;;;;;;5069710;28;20190;-84
2022/08/08 07:52:46;;;;;;;0.10;0.10;;;19.00;99.90;;;;;;5066667;28;20484;-84
2022/08/08 07:55:21;;;;;;;0.10;0.00;;;18.90;99.90;;;;;;5051405;28;20193;-85
2022/08/08 07:58:03;;;;;;;0.10;0.10;;;18.70;99.90;;;;;;5067237;28;20932;-84
2022/08/08 08:00:38;;;;;;;0.10;0.10;;;18.70;99.90;;;;;;5066419;28;21506;-86
2022/08/08 08:03:06;;;;;;;0.10;0.10;;;18.70;99.90;;;;;;5068157;28;20479;-86
2022/08/08 08:05:38;;;;;;;0.10;0.10;;;18.80;99.90;;;;;;5068845;28;20474;-84
2022/08/08 08:08:06;;;;;;;0.10;0.10;;;18.80;99.90;;;;;;5067889;28;20456;-86
2022/08/08 08:10:34;;;;;;;0.10;0.10;;;18.70;99.90;;;;;;5069145;28;20480;-87
2022/08/08 08:13:19;;;;;;;0.10;0.10;;;18.70;99.90;;;;;;5052546;28;20488;-86
2022/08/08 08:16:00;;;;;;;0.10;0.10;;;18.80;99.90;;;;;;5049275;28;20507;-86
2022/08/08 08:18:43;;;;;;;0.10;0.00;;;18.80;99.90;;;;;;5063664;28;20534;-87
2022/08/08 08:21:10;;;;;;;0.10;0.00;;;18.80;99.90;;;;;;5068406;28;20459;-86
2022/08/08 08:23:36;;;;;;;0.10;0.10;;;18.80;99.90;;;;;;5066834;28;20431;-84
2022/08/08 08:26:03;;;;;;;0.10;0.10;;;18.90;99.90;;;;;;5069255;28;20440;-84
2022/08/08 08:28:29;;;;;;;0.10;0.07;;;19.00;99.90;;;;;;5050326;28;20582;-84
2022/08/08 08:30:55;;;;;;;0.10;0.10;;;18.90;99.90;;;;;;5050707;28;20444;-84
2022/08/08 08:33:21;;;;;;;0.10;0.10;;;18.80;99.90;;;;;;5068123;28;20229;-85
2022/08/08 08:35:48;;;;;;;0.10;0.10;;;18.80;99.90;;;;;;5067926;28;20894;-84
2022/08/08 08:38:13;;;;;;;0.10;0.10;;;18.80;99.90;;;;;;5068702;28;20512;-84
2022/08/08 08:40:39;;;;;;;0.10;0.10;;;18.90;99.90;;;;;;5068656;28;20440;-83
2022/08/08 08:43:06;;;;;;;0.10;0.00;;;18.90;99.90;;;;;;5068084;28;20601;-84
2022/08/08 08:45:34;;;;;;;0.10;0.10;;;18.90;99.90;;;;;;5068248;28;20214;-84
2022/08/08 08:47:59;;;;;;;0.10;0.10;;;19.00;99.90;;;;;;5071028;28;20969;-84
2022/08/08 08:50:26;;;;;;;0.10;0.00;;;19.20;99.90;;;;;;5047120;28;20522;-86
2022/08/08 08:52:55;;;;;;;0.10;0.10;;;19.20;99.90;;;;;;5068036;28;20347;-84
2022/08/08 08:55:21;;;;;;;0.10;0.00;;;19.00;99.90;;;;;;5051035;28;20489;-86
2022/08/08 08:57:51;;;;;;;0.10;0.10;;;19.30;99.90;;;;;;5064864;28;20531;-87
2022/08/08 09:00:18;;;;;;;0.10;0.10;;;19.50;99.90;;;;;;5069201;28;20236;-87
2022/08/08 09:02:45;;;;;;;0.10;0.10;;;19.60;99.90;;;;;;5068089;28;20463;-87
2022/08/08 09:05:13;;;;;;;0.10;0.00;;;19.70;99.90;;;;;;5070379;28;20530;-86
2022/08/08 09:07:40;;;;;;;0.10;0.00;;;19.80;99.90;;;;;;5054564;28;20939;-87
2022/08/08 09:10:07;;;;;;;0.10;0.00;;;19.80;99.90;;;;;;5070948;28;20994;-86
2022/08/08 09:12:34;;;;;;;0.10;0.00;;;19.80;99.90;;;;;;5071102;28;20538;-86
2022/08/08 09:15:00;;;;;;;0.10;0.00;;;19.70;99.90;;;;;;5053707;28;20444;-87
2022/08/08 09:17:26;;;;;;;0.10;0.00;;;19.80;99.90;;;;;;5066330;28;20443;-87
2022/08/08 09:19:57;;;;;;;0.10;0.00;;;19.70;99.90;;;;;;5067162;28;20341;-87
2022/08/08 09:22:24;;;;;;;0.10;0.10;;;19.70;99.90;;;;;;5067412;28;20543;-87
2022/08/08 09:24:52;;;;;;;0.10;0.00;;;19.90;99.90;;;;;;5050005;28;20951;-89
2022/08/08 09:27:18;;;;;;;0.10;0.00;;;20.00;99.90;;;;;;5071303;28;20451;-88
2022/08/08 09:30:02;;;;;;;0.10;0.10;;;20.20;99.90;;;;;;5067815;28;20915;-86
2022/08/08 09:32:36;;;;;;;0.10;0.10;;;20.10;99.90;;;;;;5066166;28;20479;-85
2022/08/08 09:35:06;;;;;;;0.10;0.07;;;19.90;99.90;;;;;;5069945;28;20567;-86
2022/08/08 09:37:40;;;;;;;0.10;0.00;;;19.70;99.90;;;;;;5061974;28;20426;-86
2022/08/08 09:40:08;;;;;;;0.10;0.00;;;19.70;99.90;;;;;;5048498;28;20538;-85
2022/08/08 09:42:37;;;;;;;0.10;0.00;;;19.90;99.90;;;;;;5068941;28;20444;-87
2022/08/08 09:45:09;;;;;;;0.10;0.10;;;20.00;99.90;;;;;;5065226;28;20940;-85
2022/08/08 09:47:37;;;;;;;0.10;0.00;;;20.00;99.90;;;;;;5050667;28;20487;-87
2022/08/08 09:50:09;;;;;;;0.10;0.00;;;20.10;99.90;;;;;;5046748;28;20806;-86
2022/08/08 09:52:37;;;;;;;0.10;0.00;;;20.20;99.90;;;;;;5056308;28;20534;-86
2022/08/08 09:55:03;;;;;;;0.10;0.00;;;20.60;99.90;;;;;;5072773;28;20416;-88
2022/08/08 09:57:34;;;;;;;0.10;0.00;;;20.70;99.90;;;;;;5069459;28;20448;-87
2022/08/08 10:00:02;;;;;;;0.10;0.00;;;20.80;99.90;;;;;;5069325;28;20178;-91
2022/08/08 10:02:37;;;;;;;0.10;0.00;;;20.60;99.90;;;;;;5064932;28;20444;-89
2022/08/08 10:05:15;;;;;;;0.10;0.00;;;20.60;99.90;;;;;;5072431;28;21027;-89
2022/08/08 10:07:50;;;;;;;0.10;0.00;;;20.80;99.90;;;;;;5082619;28;20497;-87
2022/08/08 10:10:32;;;;;;;0.10;0.00;;;20.70;99.90;;;;;;5062718;28;20848;-88
2022/08/08 10:12:59;;;;;;;0.10;0.00;;;21.10;99.90;;;;;;5047481;28;20483;-86
2022/08/08 10:15:27;;;;;;;0.10;0.00;;;21.50;99.90;;;;;;5071503;28;20450;-85
2022/08/08 10:17:55;;;;;;;0.10;0.00;;;21.30;99.90;;;;;;5066717;28;20451;-86
2022/08/08 10:20:25;;;;;;;0.10;0.00;;;21.40;99.90;;;;;;5069536;28;20594;-86
2022/08/08 10:23:03;;;;;;;0.10;0.00;;;21.60;99.90;;;;;;5065856;28;20440;-85
2022/08/08 10:25:29;;;;;;;0.10;0.00;;;21.60;99.90;;;;;;5067820;28;20443;-86
2022/08/08 10:27:55;;;;;;;0.10;0.00;;;21.40;99.90;;;;;;5068630;28;20447;-88
2022/08/08 10:30:22;;;;;;;0.10;0.00;;;21.70;99.90;;;;;;5065358;28;20962;-87
2022/08/08 10:32:56;;;;;;;0.10;0.00;;;21.60;99.90;;;;;;5059733;28;20471;-87
2022/08/08 10:35:27;;;;;;;0.10;0.00;;;22.00;99.90;;;;;;5060414;28;20444;-86
2022/08/08 10:37:57;;;;;;;0.10;0.00;;;22.20;99.90;;;;;;5065668;28;20943;-86
2022/08/08 10:40:25;;;;;;;0.10;0.00;;;22.30;99.90;;;;;;5040839;28;20557;-87
2022/08/08 10:42:56;;;;;;;0.10;0.00;;;22.30;99.90;;;;;;5062898;28;20479;-87
2022/08/08 10:45:22;;;;;;;0.10;0.00;;;22.10;99.90;;;;;;5061718;28;20439;-86
2022/08/08 10:47:53;;;;;;;0.10;0.00;;;22.00;99.90;;;;;;5068596;28;20505;-86
2022/08/08 10:50:18;;;;;;;0.10;0.00;;;21.70;99.90;;;;;;5057313;28;20193;-86
2022/08/08 10:52:44;;;;;;;0.10;0.00;;;21.80;99.90;;;;;;5068919;28;20487;-84
2022/08/08 10:55:12;;;;;;;0.10;0.00;;;21.60;99.90;;;;;;5065114;28;20642;-85
2022/08/08 10:58:03;;;;;;;0.10;0.00;;;21.40;99.90;;;;;;5066332;28;20210;-85
2022/08/08 11:00:30;;;;;;;0.10;0.00;;;21.10;99.90;;;;;;5057080;28;21058;-86
2022/08/08 11:02:56;;;;;;;0.10;0.00;;;21.00;99.90;;;;;;5064657;28;20640;-84
2022/08/08 11:05:22;;;;;;;0.10;0.00;;;20.70;99.90;;;;;;5066923;28;20443;-82
2022/08/08 11:07:53;;;;;;;0.10;0.00;;;21.00;99.90;;;;;;5067296;28;20439;-83
2022/08/08 11:10:21;;;;;;;0.10;0.00;;;21.10;99.90;;;;;;5045334;28;20225;-84
2022/08/08 11:13:00;;;;;;;0.10;0.10;;;21.10;99.90;;;;;;5068703;28;20536;-86
2022/08/08 11:15:28;;;;;;;0.10;0.00;;;21.00;99.90;;;;;;5067823;28;20436;-87
2022/08/08 11:17:55;;;;;;;0.10;0.00;;;21.20;99.90;;;;;;5074106;28;20443;-87
2022/08/08 11:20:24;;;;;;;0.10;0.00;;;21.30;99.90;;;;;;5066386;28;20939;-83
2022/08/08 11:22:54;;;;;;;0.10;0.00;;;21.50;99.90;;;;;;5070594;28;21022;-84
2022/08/08 11:25:31;;;;;;;0.10;0.00;;;21.50;99.90;;;;;;5067845;28;20466;-85
2022/08/08 11:27:59;;;;;;;0.10;0.00;;;21.80;99.90;;;;;;5053934;28;20533;-82
2022/08/08 11:30:28;;;;;;;0.10;0.00;;;21.80;99.90;;;;;;5062089;28;20441;-83
2022/08/08 11:32:57;;;;;;;0.10;0.00;;;22.10;99.90;;;;;;5057059;28;20512;-85
2022/08/08 11:35:24;;;;;;;0.10;0.00;;;22.40;99.90;;;;;;5053073;28;20455;-84
2022/08/08 11:37:50;;;;;;;0.10;0.00;;;22.30;99.90;;;;;;5067378;28;20866;-84
2022/08/08 11:40:16;;;;;;;0.10;0.00;;;22.60;99.90;;;;;;5057280;28;20436;-84
2022/08/08 11:42:42;;;;;;;0.10;0.00;;;22.40;99.90;;;;;;5068244;28;20186;-83
2022/08/08 11:45:09;;;;;;;0.10;0.10;;;22.20;99.90;;;;;;5062650;28;20443;-83
2022/08/08 11:47:38;;;;;;;0.10;0.00;;;21.70;99.90;;;;;;5085307;28;20484;-84
2022/08/08 11:50:07;;;;;;;0.10;0.00;;;21.50;99.90;;;;;;5069476;28;20539;-82
2022/08/08 11:52:34;;;;;;;0.10;0.00;;;21.60;99.90;;;;;;5063848;28;20512;-84
2022/08/08 11:55:00;;;;;;;0.10;0.00;;;21.60;99.90;;;;;;5068028;28;20830;-83
2022/08/08 11:57:28;;;;;;;0.10;0.00;;;21.50;99.90;;;;;;5070821;28;21013;-83
2022/08/08 11:59:56;;;;;;;0.10;0.00;;;21.30;99.90;;;;;;5047658;28;20646;-82
2022/08/08 12:02:25;;;;;;;0.10;0.00;;;21.40;99.90;;;;;;5063482;28;20471;-86
2022/08/08 12:05:09;;;;;;;0.10;0.00;;;21.50;99.90;;;;;;5049643;28;21005;-84
2022/08/08 12:07:45;;;;;;;0.10;0.00;;;21.60;99.90;;;;;;5064048;28;20806;-84
2022/08/08 12:10:12;;;;;;;0.10;0.00;;;21.40;99.90;;;;;;5057817;28;20533;-84
2022/08/08 12:12:46;;;;;;;0.10;0.00;;;21.20;99.90;;;;;;5066282;28;20880;-87
2022/08/08 12:15:23;;;;;;;0.10;0.00;;;21.40;99.90;;;;;;5054380;28;20547;-83
2022/08/08 12:17:49;;;;;;;0.10;0.00;;;21.40;99.90;;;;;;5063167;28;20447;-84
2022/08/08 12:20:14;;;;;;;0.10;0.00;;;21.60;99.90;;;;;;5070425;28;20423;-83
2022/08/08 12:22:48;;;;;;;0.10;0.00;;;21.70;99.90;;;;;;5069978;28;20216;-83
2022/08/08 12:25:26;;;;;;;0.10;0.00;;;21.70;99.90;;;;;;5066439;28;20654;-83
2022/08/08 12:28:06;;;;;;;0.10;0.00;;;21.80;99.90;;;;;;5061368;28;20441;-85
2022/08/08 12:30:32;;;;;;;0.10;0.00;;;21.70;99.90;;;;;;5054388;28;20443;-83
2022/08/08 12:33:01;;;;;;;0.10;0.00;;;21.70;99.90;;;;;;5070094;28;20475;-84
2022/08/08 12:35:37;;;;;;;0.10;0.00;;;21.90;99.90;;;;;;5070960;28;20830;-84
2022/08/08 12:38:06;;;;;;;0.10;0.00;;;21.90;99.90;;;;;;5059871;28;20419;-85
2022/08/08 12:40:42;;;;;;;0.10;0.00;;;22.10;99.90;;;;;;5046167;28;20939;-83
2022/08/08 12:43:09;;;;;;;0.10;0.00;;;22.70;99.90;;;;;;5068867;28;20522;-84
2022/08/08 12:45:43;;;;;;;0.10;0.00;;;23.70;99.90;;;;;;5068434;28;20445;-84
2022/08/08 12:48:22;;;;;;;0.10;0.00;;;24.40;99.90;;;;;;5069637;28;20539;-84
2022/08/08 12:50:55;;;;;;;0.10;0.00;;;24.50;99.90;;;;;;5073368;28;20444;-84
2022/08/08 12:53:25;;;;;;;0.10;0.00;;;24.10;99.90;;;;;;5067570;28;20483;-84
2022/08/08 12:55:55;;;;;;;0.10;0.00;;;24.20;99.90;;;;;;5065583;28;20991;-83
2022/08/08 12:58:22;;;;;;;0.10;0.00;;;24.00;99.90;;;;;;5052746;28;20447;-85
2022/08/08 13:00:49;;;;;;;0.10;0.00;;;23.30;99.90;;;;;;5056977;28;20504;-83
2022/08/08 13:03:32;;;;;;;0.10;0.00;;;23.20;99.90;;;;;;5056387;28;20455;-85
2022/08/08 13:06:09;;;;;;;0.10;0.00;;;23.00;99.90;;;;;;5071033;28;21014;-84
2022/08/08 13:08:42;;;;;;;0.10;0.00;;;22.70;99.90;;;;;;5069603;28;20497;-85
2022/08/08 13:11:34;;;;;;;0.10;0.00;;;22.60;99.90;;;;;;5071661;28;20478;-84
2022/08/08 13:14:04;;;;;;;0.10;0.00;;;22.70;99.90;;;;;;5049902;28;20456;-84
2022/08/08 13:16:32;;;;;;;0.10;0.00;;;22.90;99.90;;;;;;5073321;28;20448;-83
2022/08/08 13:19:00;;;;;;;0.10;0.00;;;22.70;99.90;;;;;;5067225;28;20519;-84
2022/08/08 13:21:26;;;;;;;0.10;0.00;;;22.90;99.90;;;;;;5070460;28;20440;-84
2022/08/08 13:23:51;;;;;;;0.10;0.00;;;22.90;99.90;;;;;;5073727;28;20431;-84
2022/08/08 13:26:17;;;;;;;0.10;0.00;;;22.60;99.90;;;;;;5074384;28;20209;-83